sensor_id;sensor_type;location;lat;lon;timestamp;P1;durP1;ratioP1;P2;durP2;ratioP2
63567;SDS011;49715;42.386;20.434;2022-10-28T00:00:05;26.57;;;12.00;;
63567;SDS011;49715;42.386;20.434;2022-10-28T00:02:32;22.45;;;11.20;;
63567;SDS011;49715;42.386;20.434;2022-10-28T00:04:58;19.37;;;11.17;;
63567;SDS011;49715;42.386;20.434;2022-10-28T00:07:26;22.90;;;11.77;;
63567;SDS011;49715;42.386;20.434;2022-10-28T00:09:53;24.15;;;12.18;;
63567;SDS011;49715;42.386;20.434;2022-10-28T00:12:19;22.70;;;11.10;;
63567;SDS011;49715;42.386;20.434;2022-10-28T00:14:46;18.73;;;11.55;;
63567;SDS011;49715;42.386;20.434;2022-10-28T00:17:12;27.33;;;11.77;;
63567;SDS011;49715;42.386;20.434;2022-10-28T00:19:38;20.92;;;11.25;;
63567;SDS011;49715;42.386;20.434;2022-10-28T00:22:05;19.13;;;10.53;;
63567;SDS011;49715;42.386;20.434;2022-10-28T00:24:31;19.27;;;9.63;;
63567;SDS011;49715;42.386;20.434;2022-10-28T00:26:57;19.70;;;8.90;;
63567;SDS011;49715;42.386;20.434;2022-10-28T00:29:24;15.63;;;8.53;;
63567;SDS011;49715;42.386;20.434;2022-10-28T00:31:50;17.30;;;8.87;;
63567;SDS011;49715;42.386;20.434;2022-10-28T00:34:18;15.07;;;8.20;;
63567;SDS011;49715;42.386;20.434;2022-10-28T00:36:46;17.92;;;9.02;;
63567;SDS011;49715;42.386;20.434;2022-10-28T00:39:17;16.40;;;8.45;;
63567;SDS011;49715;42.386;20.434;2022-10-28T00:41:50;15.63;;;8.18;;
63567;SDS011;49715;42.386;20.434;2022-10-28T00:52:47;13.68;;;8.25;;
63567;SDS011;49715;42.386;20.434;2022-10-28T00:55:17;14.07;;;8.63;;
63567;SDS011;49715;42.386;20.434;2022-10-28T00:57:45;12.45;;;8.85;;
63567;SDS011;49715;42.386;20.434;2022-10-28T01:00:12;14.57;;;7.97;;
63567;SDS011;49715;42.386;20.434;2022-10-28T01:02:46;13.63;;;9.07;;
63567;SDS011;49715;42.386;20.434;2022-10-28T01:05:15;13.30;;;8.55;;
63567;SDS011;49715;42.386;20.434;2022-10-28T01:07:45;14.05;;;8.98;;
63567;SDS011;49715;42.386;20.434;2022-10-28T01:10:12;16.55;;;10.10;;
63567;SDS011;49715;42.386;20.434;2022-10-28T01:12:44;15.48;;;8.82;;
63567;SDS011;49715;42.386;20.434;2022-10-28T01:18:00;15.63;;;9.00;;
63567;SDS011;49715;42.386;20.434;2022-10-28T01:25:57;14.95;;;8.88;;
63567;SDS011;49715;42.386;20.434;2022-10-28T01:37:39;17.88;;;9.52;;
63567;SDS011;49715;42.386;20.434;2022-10-28T01:40:19;17.17;;;9.02;;
63567;SDS011;49715;42.386;20.434;2022-10-28T01:45:50;16.83;;;8.65;;
63567;SDS011;49715;42.386;20.434;2022-10-28T01:48:31;17.42;;;9.00;;
63567;SDS011;49715;42.386;20.434;2022-10-28T01:51:06;17.08;;;8.70;;
63567;SDS011;49715;42.386;20.434;2022-10-28T01:53:39;18.63;;;8.23;;
63567;SDS011;49715;42.386;20.434;2022-10-28T01:56:10;16.67;;;9.00;;
63567;SDS011;49715;42.386;20.434;2022-10-28T01:58:41;17.77;;;9.10;;
63567;SDS011;49715;42.386;20.434;2022-10-28T02:01:09;16.45;;;9.20;;
63567;SDS011;49715;42.386;20.434;2022-10-28T02:03:37;21.50;;;9.68;;
63567;SDS011;49715;42.386;20.434;2022-10-28T02:06:04;18.10;;;8.85;;
63567;SDS011;49715;42.386;20.434;2022-10-28T02:16:47;33.50;;;20.35;;
63567;SDS011;49715;42.386;20.434;2022-10-28T02:19:37;17.10;;;8.82;;
63567;SDS011;49715;42.386;20.434;2022-10-28T02:22:29;20.58;;;12.82;;
63567;SDS011;49715;42.386;20.434;2022-10-28T02:25:14;17.52;;;10.43;;
63567;SDS011;49715;42.386;20.434;2022-10-28T02:30:52;24.23;;;12.80;;
63567;SDS011;49715;42.386;20.434;2022-10-28T02:33:28;34.65;;;22.95;;
63567;SDS011;49715;42.386;20.434;2022-10-28T02:36:00;25.67;;;14.85;;
63567;SDS011;49715;42.386;20.434;2022-10-28T02:38:35;24.00;;;16.02;;
63567;SDS011;49715;42.386;20.434;2022-10-28T02:41:11;23.02;;;15.38;;
63567;SDS011;49715;42.386;20.434;2022-10-28T02:43:43;21.38;;;14.15;;
63567;SDS011;49715;42.386;20.434;2022-10-28T02:46:12;23.30;;;11.52;;
63567;SDS011;49715;42.386;20.434;2022-10-28T02:51:22;21.65;;;11.70;;
63567;SDS011;49715;42.386;20.434;2022-10-28T02:53:55;19.83;;;11.48;;
63567;SDS011;49715;42.386;20.434;2022-10-28T02:56:28;16.58;;;10.95;;
63567;SDS011;49715;42.386;20.434;2022-10-28T02:58:57;18.85;;;11.18;;
63567;SDS011;49715;42.386;20.434;2022-10-28T03:01:24;20.07;;;11.37;;
63567;SDS011;49715;42.386;20.434;2022-10-28T03:03:50;21.27;;;9.70;;
63567;SDS011;49715;42.386;20.434;2022-10-28T03:06:17;21.73;;;9.30;;
63567;SDS011;49715;42.386;20.434;2022-10-28T03:08:43;17.47;;;8.60;;
63567;SDS011;49715;42.386;20.434;2022-10-28T03:11:10;12.93;;;7.30;;
63567;SDS011;49715;42.386;20.434;2022-10-28T03:13:36;16.53;;;7.20;;
63567;SDS011;49715;42.386;20.434;2022-10-28T03:16:03;12.97;;;7.47;;
63567;SDS011;49715;42.386;20.434;2022-10-28T03:18:29;16.70;;;7.88;;
63567;SDS011;49715;42.386;20.434;2022-10-28T03:20:55;15.15;;;8.23;;
63567;SDS011;49715;42.386;20.434;2022-10-28T03:23:22;18.00;;;9.03;;
63567;SDS011;49715;42.386;20.434;2022-10-28T03:25:48;23.07;;;11.13;;
63567;SDS011;49715;42.386;20.434;2022-10-28T03:28:14;19.95;;;10.60;;
63567;SDS011;49715;42.386;20.434;2022-10-28T03:30:41;19.30;;;11.13;;
63567;SDS011;49715;42.386;20.434;2022-10-28T03:33:07;18.83;;;9.97;;
63567;SDS011;49715;42.386;20.434;2022-10-28T03:35:33;17.95;;;9.65;;
63567;SDS011;49715;42.386;20.434;2022-10-28T03:38:00;21.57;;;10.70;;
63567;SDS011;49715;42.386;20.434;2022-10-28T03:40:26;18.42;;;10.68;;
63567;SDS011;49715;42.386;20.434;2022-10-28T03:42:53;20.30;;;11.30;;
63567;SDS011;49715;42.386;20.434;2022-10-28T03:45:19;23.97;;;11.80;;
63567;SDS011;49715;42.386;20.434;2022-10-28T03:47:46;19.43;;;12.40;;
63567;SDS011;49715;42.386;20.434;2022-10-28T03:50:12;28.27;;;12.73;;
63567;SDS011;49715;42.386;20.434;2022-10-28T03:52:38;29.40;;;13.33;;
63567;SDS011;49715;42.386;20.434;2022-10-28T03:55:05;24.50;;;12.50;;
63567;SDS011;49715;42.386;20.434;2022-10-28T03:57:31;22.13;;;11.68;;
63567;SDS011;49715;42.386;20.434;2022-10-28T03:59:58;32.42;;;12.40;;
63567;SDS011;49715;42.386;20.434;2022-10-28T04:02:24;26.40;;;12.20;;
63567;SDS011;49715;42.386;20.434;2022-10-28T04:04:51;20.85;;;10.90;;
63567;SDS011;49715;42.386;20.434;2022-10-28T04:07:18;18.77;;;10.00;;
63567;SDS011;49715;42.386;20.434;2022-10-28T04:09:44;20.27;;;10.13;;
63567;SDS011;49715;42.386;20.434;2022-10-28T04:12:11;13.20;;;8.52;;
63567;SDS011;49715;42.386;20.434;2022-10-28T04:14:37;23.13;;;9.60;;
63567;SDS011;49715;42.386;20.434;2022-10-28T04:17:03;18.42;;;8.70;;
63567;SDS011;49715;42.386;20.434;2022-10-28T04:19:30;19.23;;;8.68;;
63567;SDS011;49715;42.386;20.434;2022-10-28T04:21:56;14.20;;;8.20;;
63567;SDS011;49715;42.386;20.434;2022-10-28T04:24:23;18.63;;;8.43;;
63567;SDS011;49715;42.386;20.434;2022-10-28T04:26:49;17.73;;;8.80;;
63567;SDS011;49715;42.386;20.434;2022-10-28T04:29:16;19.00;;;8.80;;
63567;SDS011;49715;42.386;20.434;2022-10-28T04:31:44;15.18;;;8.68;;
63567;SDS011;49715;42.386;20.434;2022-10-28T04:34:10;17.80;;;9.27;;
63567;SDS011;49715;42.386;20.434;2022-10-28T04:36:37;18.83;;;9.10;;
63567;SDS011;49715;42.386;20.434;2022-10-28T04:39:03;19.30;;;9.10;;
63567;SDS011;49715;42.386;20.434;2022-10-28T04:41:29;15.43;;;9.27;;
63567;SDS011;49715;42.386;20.434;2022-10-28T04:43:56;17.25;;;9.02;;
63567;SDS011;49715;42.386;20.434;2022-10-28T04:46:22;16.67;;;9.33;;
63567;SDS011;49715;42.386;20.434;2022-10-28T04:48:49;21.50;;;9.70;;
63567;SDS011;49715;42.386;20.434;2022-10-28T04:51:15;19.03;;;8.73;;
63567;SDS011;49715;42.386;20.434;2022-10-28T04:53:42;22.63;;;9.83;;
63567;SDS011;49715;42.386;20.434;2022-10-28T04:56:08;18.23;;;9.48;;
63567;SDS011;49715;42.386;20.434;2022-10-28T04:58:34;21.08;;;11.10;;
63567;SDS011;49715;42.386;20.434;2022-10-28T05:01:06;19.45;;;10.07;;
63567;SDS011;49715;42.386;20.434;2022-10-28T05:03:34;19.35;;;9.95;;
63567;SDS011;49715;42.386;20.434;2022-10-28T05:06:01;20.65;;;9.95;;
63567;SDS011;49715;42.386;20.434;2022-10-28T05:08:27;20.48;;;9.48;;
63567;SDS011;49715;42.386;20.434;2022-10-28T05:10:54;17.40;;;9.03;;
63567;SDS011;49715;42.386;20.434;2022-10-28T05:13:20;20.60;;;8.50;;
63567;SDS011;49715;42.386;20.434;2022-10-28T05:15:47;19.08;;;9.60;;
63567;SDS011;49715;42.386;20.434;2022-10-28T05:18:14;19.33;;;10.00;;
63567;SDS011;49715;42.386;20.434;2022-10-28T05:20:41;24.58;;;10.77;;
63567;SDS011;49715;42.386;20.434;2022-10-28T05:23:08;25.90;;;10.40;;
63567;SDS011;49715;42.386;20.434;2022-10-28T05:25:35;23.63;;;9.50;;
63567;SDS011;49715;42.386;20.434;2022-10-28T05:30:29;23.17;;;13.27;;
63567;SDS011;49715;42.386;20.434;2022-10-28T05:32:59;33.15;;;16.58;;
63567;SDS011;49715;42.386;20.434;2022-10-28T05:35:28;30.38;;;13.68;;
63567;SDS011;49715;42.386;20.434;2022-10-28T05:37:55;40.78;;;16.10;;
63567;SDS011;49715;42.386;20.434;2022-10-28T05:40:22;38.63;;;17.63;;
63567;SDS011;49715;42.386;20.434;2022-10-28T05:42:49;46.28;;;18.13;;
63567;SDS011;49715;42.386;20.434;2022-10-28T05:45:15;54.63;;;18.65;;
63567;SDS011;49715;42.386;20.434;2022-10-28T05:47:44;46.50;;;20.65;;
63567;SDS011;49715;42.386;20.434;2022-10-28T05:50:12;68.47;;;22.13;;
63567;SDS011;49715;42.386;20.434;2022-10-28T05:52:48;46.63;;;20.05;;
63567;SDS011;49715;42.386;20.434;2022-10-28T05:55:17;49.38;;;19.58;;
63567;SDS011;49715;42.386;20.434;2022-10-28T05:57:47;45.05;;;18.27;;
63567;SDS011;49715;42.386;20.434;2022-10-28T06:00:20;42.20;;;17.90;;
63567;SDS011;49715;42.386;20.434;2022-10-28T06:02:49;38.60;;;16.75;;
63567;SDS011;49715;42.386;20.434;2022-10-28T06:05:16;43.65;;;17.25;;
63567;SDS011;49715;42.386;20.434;2022-10-28T06:07:44;48.10;;;19.80;;
63567;SDS011;49715;42.386;20.434;2022-10-28T06:10:11;47.88;;;18.13;;
63567;SDS011;49715;42.386;20.434;2022-10-28T06:12:37;48.30;;;19.17;;
63567;SDS011;49715;42.386;20.434;2022-10-28T06:15:04;50.03;;;19.43;;
63567;SDS011;49715;42.386;20.434;2022-10-28T06:17:32;37.97;;;15.85;;
63567;SDS011;49715;42.386;20.434;2022-10-28T06:19:58;39.22;;;18.50;;
63567;SDS011;49715;42.386;20.434;2022-10-28T06:22:25;38.40;;;18.77;;
63567;SDS011;49715;42.386;20.434;2022-10-28T06:24:53;42.00;;;19.52;;
63567;SDS011;49715;42.386;20.434;2022-10-28T06:27:20;42.45;;;19.20;;
63567;SDS011;49715;42.386;20.434;2022-10-28T06:29:46;38.80;;;19.35;;
63567;SDS011;49715;42.386;20.434;2022-10-28T06:32:13;47.45;;;19.77;;
63567;SDS011;49715;42.386;20.434;2022-10-28T06:34:40;42.55;;;19.17;;
63567;SDS011;49715;42.386;20.434;2022-10-28T06:37:08;37.00;;;19.02;;
63567;SDS011;49715;42.386;20.434;2022-10-28T06:39:35;48.58;;;19.92;;
63567;SDS011;49715;42.386;20.434;2022-10-28T06:44:57;41.53;;;18.33;;
63567;SDS011;49715;42.386;20.434;2022-10-28T06:47:34;36.70;;;18.35;;
63567;SDS011;49715;42.386;20.434;2022-10-28T06:50:00;46.45;;;19.30;;
63567;SDS011;49715;42.386;20.434;2022-10-28T06:52:27;41.15;;;20.08;;
63567;SDS011;49715;42.386;20.434;2022-10-28T06:54:53;37.40;;;19.65;;
63567;SDS011;49715;42.386;20.434;2022-10-28T06:57:19;35.33;;;17.73;;
63567;SDS011;49715;42.386;20.434;2022-10-28T06:59:47;44.10;;;20.67;;
63567;SDS011;49715;42.386;20.434;2022-10-28T07:02:16;39.17;;;19.35;;
63567;SDS011;49715;42.386;20.434;2022-10-28T07:04:46;36.92;;;19.77;;
63567;SDS011;49715;42.386;20.434;2022-10-28T07:07:23;38.00;;;20.48;;
63567;SDS011;49715;42.386;20.434;2022-10-28T07:09:50;35.47;;;21.33;;
63567;SDS011;49715;42.386;20.434;2022-10-28T07:12:16;48.92;;;27.45;;
63567;SDS011;49715;42.386;20.434;2022-10-28T07:14:45;53.63;;;31.70;;
63567;SDS011;49715;42.386;20.434;2022-10-28T07:17:12;59.13;;;36.50;;
63567;SDS011;49715;42.386;20.434;2022-10-28T07:19:40;70.93;;;39.95;;
63567;SDS011;49715;42.386;20.434;2022-10-28T07:22:06;55.25;;;29.90;;
63567;SDS011;49715;42.386;20.434;2022-10-28T07:24:33;51.45;;;29.05;;
63567;SDS011;49715;42.386;20.434;2022-10-28T07:27:01;37.90;;;22.20;;
63567;SDS011;49715;42.386;20.434;2022-10-28T07:29:30;30.13;;;16.60;;
63567;SDS011;49715;42.386;20.434;2022-10-28T07:31:57;33.58;;;18.00;;
63567;SDS011;49715;42.386;20.434;2022-10-28T07:34:24;25.65;;;15.65;;
63567;SDS011;49715;42.386;20.434;2022-10-28T07:36:51;32.90;;;15.60;;
63567;SDS011;49715;42.386;20.434;2022-10-28T07:39:18;29.48;;;15.73;;
63567;SDS011;49715;42.386;20.434;2022-10-28T07:41:46;30.83;;;15.52;;
63567;SDS011;49715;42.386;20.434;2022-10-28T07:44:19;29.80;;;16.85;;
63567;SDS011;49715;42.386;20.434;2022-10-28T07:47:10;30.73;;;17.02;;
63567;SDS011;49715;42.386;20.434;2022-10-28T07:49:38;31.80;;;16.20;;
63567;SDS011;49715;42.386;20.434;2022-10-28T07:52:05;37.15;;;15.95;;
63567;SDS011;49715;42.386;20.434;2022-10-28T07:54:32;34.15;;;16.38;;
63567;SDS011;49715;42.386;20.434;2022-10-28T07:56:58;34.53;;;16.43;;
63567;SDS011;49715;42.386;20.434;2022-10-28T07:59:26;41.13;;;16.67;;
63567;SDS011;49715;42.386;20.434;2022-10-28T08:01:53;27.80;;;15.70;;
63567;SDS011;49715;42.386;20.434;2022-10-28T08:04:20;30.83;;;17.40;;
63567;SDS011;49715;42.386;20.434;2022-10-28T08:06:49;39.83;;;18.10;;
63567;SDS011;49715;42.386;20.434;2022-10-28T08:09:36;39.50;;;18.38;;
63567;SDS011;49715;42.386;20.434;2022-10-28T08:12:06;33.03;;;17.48;;
63567;SDS011;49715;42.386;20.434;2022-10-28T08:14:36;33.78;;;17.92;;
63567;SDS011;49715;42.386;20.434;2022-10-28T08:17:03;32.88;;;17.05;;
63567;SDS011;49715;42.386;20.434;2022-10-28T08:19:32;34.15;;;17.80;;
63567;SDS011;49715;42.386;20.434;2022-10-28T08:22:05;40.42;;;18.70;;
63567;SDS011;49715;42.386;20.434;2022-10-28T08:24:46;45.28;;;17.23;;
63567;SDS011;49715;42.386;20.434;2022-10-28T08:27:24;30.05;;;16.83;;
63567;SDS011;49715;42.386;20.434;2022-10-28T08:29:51;33.50;;;16.02;;
63567;SDS011;49715;42.386;20.434;2022-10-28T08:32:20;35.80;;;17.52;;
63567;SDS011;49715;42.386;20.434;2022-10-28T08:34:48;57.30;;;33.92;;
63567;SDS011;49715;42.386;20.434;2022-10-28T08:37:16;38.17;;;17.02;;
63567;SDS011;49715;42.386;20.434;2022-10-28T08:39:44;37.92;;;18.58;;
63567;SDS011;49715;42.386;20.434;2022-10-28T08:50:21;29.20;;;13.80;;
63567;SDS011;49715;42.386;20.434;2022-10-28T08:53:04;28.00;;;12.52;;
63567;SDS011;49715;42.386;20.434;2022-10-28T08:55:48;28.60;;;12.15;;
63567;SDS011;49715;42.386;20.434;2022-10-28T08:58:19;29.85;;;11.25;;
63567;SDS011;49715;42.386;20.434;2022-10-28T09:00:51;20.48;;;10.60;;
63567;SDS011;49715;42.386;20.434;2022-10-28T09:03:21;18.55;;;9.98;;
63567;SDS011;49715;42.386;20.434;2022-10-28T09:06:07;25.90;;;9.30;;
63567;SDS011;49715;42.386;20.434;2022-10-28T09:08:46;23.45;;;10.45;;
63567;SDS011;49715;42.386;20.434;2022-10-28T09:11:33;20.10;;;9.00;;
63567;SDS011;49715;42.386;20.434;2022-10-28T09:17:08;15.00;;;7.68;;
63567;SDS011;49715;42.386;20.434;2022-10-28T09:31:07;11.57;;;6.32;;
63567;SDS011;49715;42.386;20.434;2022-10-28T09:36:38;13.80;;;6.47;;
63567;SDS011;49715;42.386;20.434;2022-10-28T09:39:12;8.65;;;5.40;;
63567;SDS011;49715;42.386;20.434;2022-10-28T09:41:46;15.73;;;5.78;;
63567;SDS011;49715;42.386;20.434;2022-10-28T09:44:25;17.35;;;5.53;;
63567;SDS011;49715;42.386;20.434;2022-10-28T09:47:22;11.35;;;6.10;;
63567;SDS011;49715;42.386;20.434;2022-10-28T09:49:56;8.48;;;4.78;;
63567;SDS011;49715;42.386;20.434;2022-10-28T09:52:34;10.70;;;4.68;;
63567;SDS011;49715;42.386;20.434;2022-10-28T09:55:19;12.05;;;5.45;;
63567;SDS011;49715;42.386;20.434;2022-10-28T09:57:50;9.32;;;4.85;;
63567;SDS011;49715;42.386;20.434;2022-10-28T10:00:18;13.23;;;5.30;;
63567;SDS011;49715;42.386;20.434;2022-10-28T10:02:54;9.45;;;5.40;;
63567;SDS011;49715;42.386;20.434;2022-10-28T10:05:23;10.82;;;5.35;;
63567;SDS011;49715;42.386;20.434;2022-10-28T10:07:53;12.27;;;5.00;;
63567;SDS011;49715;42.386;20.434;2022-10-28T10:10:31;11.75;;;3.85;;
63567;SDS011;49715;42.386;20.434;2022-10-28T10:13:02;6.07;;;3.90;;
63567;SDS011;49715;42.386;20.434;2022-10-28T10:15:34;9.00;;;4.00;;
63567;SDS011;49715;42.386;20.434;2022-10-28T10:18:04;11.13;;;3.92;;
63567;SDS011;49715;42.386;20.434;2022-10-28T10:20:49;9.15;;;3.45;;
63567;SDS011;49715;42.386;20.434;2022-10-28T10:23:38;10.95;;;4.28;;
63567;SDS011;49715;42.386;20.434;2022-10-28T10:26:15;8.02;;;3.38;;
63567;SDS011;49715;42.386;20.434;2022-10-28T10:28:46;7.63;;;3.55;;
63567;SDS011;49715;42.386;20.434;2022-10-28T10:31:21;8.27;;;3.35;;
63567;SDS011;49715;42.386;20.434;2022-10-28T10:33:57;8.90;;;3.42;;
63567;SDS011;49715;42.386;20.434;2022-10-28T10:36:27;7.67;;;3.20;;
63567;SDS011;49715;42.386;20.434;2022-10-28T10:38:58;10.15;;;4.05;;
63567;SDS011;49715;42.386;20.434;2022-10-28T10:41:42;7.07;;;3.40;;
63567;SDS011;49715;42.386;20.434;2022-10-28T10:44:30;9.18;;;3.50;;
63567;SDS011;49715;42.386;20.434;2022-10-28T10:49:38;7.88;;;3.67;;
63567;SDS011;49715;42.386;20.434;2022-10-28T10:52:16;10.60;;;3.95;;
63567;SDS011;49715;42.386;20.434;2022-10-28T10:55:34;6.88;;;3.42;;
63567;SDS011;49715;42.386;20.434;2022-10-28T10:58:16;7.05;;;3.17;;
63567;SDS011;49715;42.386;20.434;2022-10-28T11:00:53;13.10;;;4.45;;
63567;SDS011;49715;42.386;20.434;2022-10-28T11:03:34;7.13;;;2.92;;
63567;SDS011;49715;42.386;20.434;2022-10-28T11:06:26;8.95;;;2.83;;
63567;SDS011;49715;42.386;20.434;2022-10-28T11:09:03;12.55;;;2.63;;
63567;SDS011;49715;42.386;20.434;2022-10-28T11:15:26;5.70;;;3.15;;
63567;SDS011;49715;42.386;20.434;2022-10-28T11:17:54;6.47;;;2.72;;
63567;SDS011;49715;42.386;20.434;2022-10-28T11:20:25;10.05;;;3.05;;
63567;SDS011;49715;42.386;20.434;2022-10-28T11:25:45;5.45;;;3.15;;
63567;SDS011;49715;42.386;20.434;2022-10-28T11:33:40;8.40;;;3.25;;
63567;SDS011;49715;42.386;20.434;2022-10-28T11:36:33;12.27;;;3.47;;
63567;SDS011;49715;42.386;20.434;2022-10-28T11:39:17;8.88;;;2.75;;
63567;SDS011;49715;42.386;20.434;2022-10-28T11:56:10;10.85;;;2.63;;
63567;SDS011;49715;42.386;20.434;2022-10-28T12:05:16;12.00;;;3.33;;
63567;SDS011;49715;42.386;20.434;2022-10-28T12:19:32;6.60;;;3.10;;
63567;SDS011;49715;42.386;20.434;2022-10-28T12:24:57;7.28;;;2.90;;
63567;SDS011;49715;42.386;20.434;2022-10-28T12:27:40;10.80;;;3.13;;
63567;SDS011;49715;42.386;20.434;2022-10-28T12:30:26;7.97;;;2.72;;
63567;SDS011;49715;42.386;20.434;2022-10-28T12:33:03;7.07;;;2.88;;
63567;SDS011;49715;42.386;20.434;2022-10-28T12:35:36;7.30;;;2.75;;
63567;SDS011;49715;42.386;20.434;2022-10-28T12:40:53;7.07;;;2.45;;
63567;SDS011;49715;42.386;20.434;2022-10-28T12:46:00;5.90;;;2.80;;
63567;SDS011;49715;42.386;20.434;2022-10-28T12:48:50;7.15;;;2.70;;
63567;SDS011;49715;42.386;20.434;2022-10-28T12:51:34;12.10;;;2.53;;
63567;SDS011;49715;42.386;20.434;2022-10-28T12:54:17;11.48;;;2.58;;
63567;SDS011;49715;42.386;20.434;2022-10-28T12:57:08;7.72;;;2.20;;
63567;SDS011;49715;42.386;20.434;2022-10-28T12:59:44;10.77;;;2.65;;
63567;SDS011;49715;42.386;20.434;2022-10-28T13:02:22;10.00;;;2.42;;
63567;SDS011;49715;42.386;20.434;2022-10-28T13:04:56;8.15;;;2.63;;
63567;SDS011;49715;42.386;20.434;2022-10-28T13:10:11;10.88;;;2.40;;
63567;SDS011;49715;42.386;20.434;2022-10-28T13:21:50;12.18;;;7.03;;
63567;SDS011;49715;42.386;20.434;2022-10-28T13:28:40;5.90;;;2.03;;
63567;SDS011;49715;42.386;20.434;2022-10-28T13:31:10;10.77;;;2.83;;
63567;SDS011;49715;42.386;20.434;2022-10-28T13:33:37;16.27;;;2.80;;
63567;SDS011;49715;42.386;20.434;2022-10-28T13:39:03;11.25;;;2.28;;
63567;SDS011;49715;42.386;20.434;2022-10-28T13:41:34;9.10;;;2.40;;
63567;SDS011;49715;42.386;20.434;2022-10-28T13:49:26;8.20;;;2.30;;
63567;SDS011;49715;42.386;20.434;2022-10-28T14:02:29;6.90;;;2.58;;
63567;SDS011;49715;42.386;20.434;2022-10-28T14:05:11;7.18;;;2.42;;
63567;SDS011;49715;42.386;20.434;2022-10-28T14:07:50;13.52;;;2.95;;
63567;SDS011;49715;42.386;20.434;2022-10-28T14:10:28;16.95;;;2.60;;
63567;SDS011;49715;42.386;20.434;2022-10-28T14:13:14;12.05;;;2.53;;
63567;SDS011;49715;42.386;20.434;2022-10-28T14:15:47;7.18;;;2.40;;
63567;SDS011;49715;42.386;20.434;2022-10-28T14:18:19;9.80;;;2.20;;
63567;SDS011;49715;42.386;20.434;2022-10-28T14:26:00;10.15;;;3.20;;
63567;SDS011;49715;42.386;20.434;2022-10-28T14:44:11;11.05;;;3.25;;
63567;SDS011;49715;42.386;20.434;2022-10-28T14:49:36;14.95;;;3.45;;
63567;SDS011;49715;42.386;20.434;2022-10-28T14:52:11;11.57;;;3.35;;
63567;SDS011;49715;42.386;20.434;2022-10-28T14:55:03;15.73;;;3.55;;
63567;SDS011;49715;42.386;20.434;2022-10-28T15:00:48;24.53;;;4.10;;
63567;SDS011;49715;42.386;20.434;2022-10-28T15:03:37;20.30;;;4.18;;
63567;SDS011;49715;42.386;20.434;2022-10-28T15:08:49;15.23;;;3.83;;
63567;SDS011;49715;42.386;20.434;2022-10-28T15:11:16;16.52;;;3.95;;
63567;SDS011;49715;42.386;20.434;2022-10-28T15:13:46;16.95;;;3.50;;
63567;SDS011;49715;42.386;20.434;2022-10-28T15:16:18;15.45;;;3.83;;
63567;SDS011;49715;42.386;20.434;2022-10-28T15:18:49;12.40;;;3.90;;
63567;SDS011;49715;42.386;20.434;2022-10-28T15:21:19;12.27;;;3.90;;
63567;SDS011;49715;42.386;20.434;2022-10-28T15:23:59;23.40;;;4.72;;
63567;SDS011;49715;42.386;20.434;2022-10-28T15:26:27;23.92;;;4.32;;
63567;SDS011;49715;42.386;20.434;2022-10-28T15:29:01;17.95;;;4.60;;
63567;SDS011;49715;42.386;20.434;2022-10-28T15:31:28;18.50;;;4.63;;
63567;SDS011;49715;42.386;20.434;2022-10-28T15:33:54;25.75;;;6.07;;
63567;SDS011;49715;42.386;20.434;2022-10-28T15:36:22;28.52;;;11.23;;
63567;SDS011;49715;42.386;20.434;2022-10-28T15:41:40;38.88;;;9.13;;
63567;SDS011;49715;42.386;20.434;2022-10-28T15:47:15;29.63;;;11.25;;
63567;SDS011;49715;42.386;20.434;2022-10-28T15:52:29;42.22;;;11.73;;
63567;SDS011;49715;42.386;20.434;2022-10-28T15:54:58;44.35;;;11.60;;
63567;SDS011;49715;42.386;20.434;2022-10-28T15:57:29;38.92;;;11.80;;
63567;SDS011;49715;42.386;20.434;2022-10-28T16:00:22;39.22;;;10.45;;
63567;SDS011;49715;42.386;20.434;2022-10-28T16:02:54;44.75;;;14.00;;
63567;SDS011;49715;42.386;20.434;2022-10-28T16:05:49;106.38;;;28.77;;
63567;SDS011;49715;42.386;20.434;2022-10-28T16:10:53;86.93;;;24.95;;
63567;SDS011;49715;42.386;20.434;2022-10-28T16:13:35;68.25;;;20.75;;
63567;SDS011;49715;42.386;20.434;2022-10-28T16:16:10;77.97;;;22.25;;
63567;SDS011;49715;42.386;20.434;2022-10-28T16:21:21;84.40;;;23.58;;
63567;SDS011;49715;42.386;20.434;2022-10-28T16:23:52;86.38;;;27.85;;
63567;SDS011;49715;42.386;20.434;2022-10-28T16:26:21;85.35;;;25.55;;
63567;SDS011;49715;42.386;20.434;2022-10-28T16:28:50;60.28;;;24.08;;
63567;SDS011;49715;42.386;20.434;2022-10-28T16:33:44;76.38;;;28.15;;
63567;SDS011;49715;42.386;20.434;2022-10-28T16:36:11;90.43;;;29.08;;
63567;SDS011;49715;42.386;20.434;2022-10-28T16:38:38;59.60;;;26.23;;
63567;SDS011;49715;42.386;20.434;2022-10-28T16:41:05;70.32;;;32.55;;
63567;SDS011;49715;42.386;20.434;2022-10-28T16:43:38;52.97;;;22.95;;
63567;SDS011;49715;42.386;20.434;2022-10-28T16:46:30;49.83;;;26.00;;
63567;SDS011;49715;42.386;20.434;2022-10-28T16:48:57;61.00;;;28.42;;
63567;SDS011;49715;42.386;20.434;2022-10-28T16:53:50;40.03;;;21.02;;
63567;SDS011;49715;42.386;20.434;2022-10-28T16:56:17;52.50;;;22.88;;
63567;SDS011;49715;42.386;20.434;2022-10-28T16:58:44;44.63;;;21.67;;
63567;SDS011;49715;42.386;20.434;2022-10-28T17:01:14;44.45;;;22.80;;
63567;SDS011;49715;42.386;20.434;2022-10-28T17:03:45;51.50;;;22.92;;
63567;SDS011;49715;42.386;20.434;2022-10-28T17:06:12;41.28;;;20.52;;
63567;SDS011;49715;42.386;20.434;2022-10-28T17:08:39;45.63;;;22.63;;
63567;SDS011;49715;42.386;20.434;2022-10-28T17:11:07;63.63;;;26.40;;
63567;SDS011;49715;42.386;20.434;2022-10-28T17:13:39;64.38;;;28.77;;
63567;SDS011;49715;42.386;20.434;2022-10-28T17:16:05;73.57;;;36.00;;
63567;SDS011;49715;42.386;20.434;2022-10-28T17:20:59;69.35;;;33.58;;
63567;SDS011;49715;42.386;20.434;2022-10-28T17:23:27;67.57;;;30.98;;
63567;SDS011;49715;42.386;20.434;2022-10-28T17:25:54;84.20;;;34.03;;
63567;SDS011;49715;42.386;20.434;2022-10-28T17:28:24;80.00;;;33.63;;
63567;SDS011;49715;42.386;20.434;2022-10-28T17:30:51;82.00;;;36.30;;
63567;SDS011;49715;42.386;20.434;2022-10-28T17:33:17;86.60;;;33.35;;
63567;SDS011;49715;42.386;20.434;2022-10-28T17:35:43;77.10;;;33.35;;
63567;SDS011;49715;42.386;20.434;2022-10-28T17:38:10;71.32;;;32.75;;
63567;SDS011;49715;42.386;20.434;2022-10-28T17:40:36;106.47;;;46.35;;
63567;SDS011;49715;42.386;20.434;2022-10-28T17:43:04;74.95;;;39.03;;
63567;SDS011;49715;42.386;20.434;2022-10-28T17:45:30;66.13;;;34.60;;
63567;SDS011;49715;42.386;20.434;2022-10-28T17:47:58;72.95;;;34.03;;
63567;SDS011;49715;42.386;20.434;2022-10-28T17:50:24;72.40;;;35.92;;
63567;SDS011;49715;42.386;20.434;2022-10-28T17:52:51;68.10;;;33.22;;
63567;SDS011;49715;42.386;20.434;2022-10-28T17:55:17;69.22;;;34.10;;
63567;SDS011;49715;42.386;20.434;2022-10-28T17:57:44;60.45;;;33.83;;
63567;SDS011;49715;42.386;20.434;2022-10-28T18:00:10;70.03;;;31.70;;
63567;SDS011;49715;42.386;20.434;2022-10-28T18:02:37;66.55;;;27.98;;
63567;SDS011;49715;42.386;20.434;2022-10-28T18:05:05;61.78;;;30.58;;
63567;SDS011;49715;42.386;20.434;2022-10-28T18:07:31;65.78;;;30.35;;
63567;SDS011;49715;42.386;20.434;2022-10-28T18:09:58;66.82;;;31.83;;
63567;SDS011;49715;42.386;20.434;2022-10-28T18:12:24;59.70;;;31.48;;